Time;durP1;ratioP1;P1;durP2;ratioP2;P2;SDS_P1;SDS_P2;PMS_P1;PMS_P2;Temp;Humidity;BMP_temperature;BMP_pressure;BME280_temperature;BME280_humidity;BME280_pressure;Samples;Min_cycle;Max_cycle;Signal;HPM_P1;HPM_P2
2021/12/23 00:03:18;;;;;;;22.60;17.23;;;;;;;0.20;100.00;101707.44;10502190;28;20068;-71
2021/12/23 00:08:18;;;;;;;24.45;16.98;;;;;;;0.25;100.00;101679.63;10501325;28;20117;-72
2021/12/23 00:13:19;;;;;;;24.10;17.23;;;;;;;0.18;100.00;101669.41;10501745;28;20098;-72
2021/12/23 00:23:41;;;;;;;26.35;17.73;;;;;;;0.27;100.00;101640.41;10515519;28;20509;-71
2021/12/23 00:28:41;;;;;;;28.92;19.30;;;;;;;0.28;100.00;101612.81;10501036;28;20043;-72
2021/12/23 00:33:43;;;;;;;37.40;22.42;;;;;;;0.35;100.00;101622.03;10501171;28;20056;-73
2021/12/23 00:38:48;;;;;;;34.10;21.20;;;;;;;0.30;100.00;101601.06;10500345;28;20032;-72
2021/12/23 00:43:49;;;;;;;40.37;21.17;;;;;;;0.34;100.00;101585.72;10515273;28;20484;-71
2021/12/23 00:48:49;;;;;;;28.42;22.25;;;;;;;0.18;100.00;101573.53;10498976;28;20024;-72
2021/12/23 00:53:52;;;;;;;25.65;17.50;;;;;;;0.08;100.00;101593.81;10465608;28;20533;-72
2021/12/23 00:58:53;;;;;;;35.83;24.13;;;;;;;-0.05;100.00;101585.88;10500265;28;20501;-72
2021/12/23 01:03:53;;;;;;;38.28;25.20;;;;;;;-0.04;100.00;101581.38;10500482;28;20036;-72
2021/12/23 01:08:53;;;;;;;49.53;26.60;;;;;;;-0.20;100.00;101583.47;10500308;28;20131;-72
2021/12/23 01:14:25;;;;;;;38.08;26.52;;;;;;;-0.37;100.00;101584.69;10499193;28;20059;-71
2021/12/23 01:19:24;;;;;;;39.20;24.30;;;;;;;-0.41;100.00;101570.75;10498875;28;20103;-72
2021/12/23 01:24:28;;;;;;;42.50;29.77;;;;;;;-0.38;100.00;101564.34;10499440;28;20052;-72
2021/12/23 01:29:29;;;;;;;53.78;30.63;;;;;;;-0.61;100.00;101560.69;10499005;28;20033;-72
2021/12/23 01:34:30;;;;;;;33.05;19.13;;;;;;;-0.55;100.00;101561.09;10498570;28;20059;-71
2021/12/23 01:39:31;;;;;;;40.70;28.77;;;;;;;-0.45;100.00;101571.91;10498487;28;20043;-72
2021/12/23 01:44:31;;;;;;;47.30;33.15;;;;;;;-0.29;100.00;101555.69;10497017;28;20032;-72
2021/12/23 01:49:31;;;;;;;49.92;35.03;;;;;;;-0.19;100.00;101545.22;10497310;28;20032;-71
2021/12/23 01:54:32;;;;;;;48.67;33.22;;;;;;;-0.22;100.00;101529.50;10498219;28;20047;-71
2021/12/23 01:59:33;;;;;;;53.42;36.50;;;;;;;-0.19;100.00;101519.50;10497007;28;20060;-71
2021/12/23 02:04:33;;;;;;;39.05;29.33;;;;;;;-0.18;100.00;101491.06;10497845;28;20111;-72
2021/12/23 02:09:33;;;;;;;59.20;38.05;;;;;;;-0.12;100.00;101487.94;10496357;28;20083;-71
2021/12/23 02:14:34;;;;;;;40.28;27.88;;;;;;;-0.15;100.00;101472.19;10497740;28;20032;-71
2021/12/23 02:19:34;;;;;;;54.88;35.72;;;;;;;-0.27;100.00;101466.81;10497970;28;20536;-72
2021/12/23 02:24:36;;;;;;;64.78;44.17;;;;;;;-0.27;100.00;101471.28;10496334;28;20040;-72
2021/12/23 02:29:37;;;;;;;87.65;53.83;;;;;;;-0.29;100.00;101471.41;10495724;28;20032;-70
2021/12/23 02:34:37;;;;;;;64.22;39.95;;;;;;;-0.30;100.00;101480.34;10497909;28;20056;-70
2021/12/23 02:39:38;;;;;;;87.45;52.10;;;;;;;-0.29;100.00;101474.06;10499406;28;20029;-70
2021/12/23 02:44:38;;;;;;;95.28;54.15;;;;;;;-0.28;100.00;101450.97;10480300;28;20032;-70
2021/12/23 02:49:38;;;;;;;76.68;43.55;;;;;;;-0.33;100.00;101438.00;10497344;28;20372;-70
2021/12/23 02:54:39;;;;;;;93.93;54.60;;;;;;;-0.31;100.00;101448.53;10496670;28;20041;-71
2021/12/23 02:59:39;;;;;;;69.03;43.25;;;;;;;-0.32;100.00;101445.03;10495270;28;20047;-71
2021/12/23 03:04:39;;;;;;;90.60;53.53;;;;;;;-0.26;100.00;101439.22;10497004;28;20483;-71
2021/12/23 03:09:40;;;;;;;63.83;40.28;;;;;;;-0.25;100.00;101432.97;10497629;28;20047;-71
2021/12/23 03:14:40;;;;;;;81.05;45.60;;;;;;;-0.45;100.00;101401.63;10519856;28;20033;-70
2021/12/23 03:19:41;;;;;;;101.32;56.30;;;;;;;-0.51;100.00;101384.34;10504324;28;20085;-72
2021/12/23 03:24:41;;;;;;;106.95;60.17;;;;;;;-0.54;100.00;101407.66;10503672;28;20040;-71
2021/12/23 03:29:41;;;;;;;74.28;44.08;;;;;;;-0.54;100.00;101399.69;10503759;28;20136;-71
2021/12/23 03:34:42;;;;;;;90.93;58.45;;;;;;;-0.51;100.00;101389.66;10503720;28;20476;-71
2021/12/23 03:39:42;;;;;;;68.55;47.58;;;;;;;-0.50;100.00;101370.06;10504168;28;20039;-70
2021/12/23 03:44:42;;;;;;;89.95;52.53;;;;;;;-0.45;100.00;101390.16;10503176;28;20111;-71
2021/12/23 03:49:43;;;;;;;99.00;50.88;;;;;;;-0.40;100.00;101394.19;10485266;28;20113;-71
2021/12/23 03:54:43;;;;;;;86.28;49.67;;;;;;;-0.33;100.00;101408.72;10501350;28;20071;-71
2021/12/23 03:59:44;;;;;;;89.38;49.47;;;;;;;-0.32;100.00;101393.59;10502571;28;20066;-70
2021/12/23 04:04:44;;;;;;;83.00;48.22;;;;;;;-0.39;100.00;101400.34;10503617;28;20438;-71
2021/12/23 04:09:44;;;;;;;90.00;51.08;;;;;;;-0.39;100.00;101395.03;10500703;28;20040;-70
2021/12/23 04:14:45;;;;;;;80.03;43.70;;;;;;;-0.42;100.00;101390.78;10501471;28;20040;-69
2021/12/23 04:19:46;;;;;;;91.80;50.25;;;;;;;-0.37;100.00;101371.81;10502097;28;20036;-71
2021/12/23 04:24:47;;;;;;;87.80;51.65;;;;;;;-0.32;100.00;101378.50;10501489;28;20499;-70
2021/12/23 04:29:47;;;;;;;89.68;50.95;;;;;;;-0.35;100.00;101368.09;10502132;28;20040;-71
2021/12/23 04:34:48;;;;;;;93.45;54.35;;;;;;;-0.38;100.00;101365.66;10499950;28;20088;-71
2021/12/23 04:39:48;;;;;;;93.40;47.15;;;;;;;-0.36;100.00;101357.53;10500856;28;20480;-71
2021/12/23 04:44:48;;;;;;;83.80;50.15;;;;;;;-0.47;100.00;101345.91;10499406;28;20131;-70
2021/12/23 04:49:49;;;;;;;89.20;48.30;;;;;;;-0.46;100.00;101349.41;10500348;28;20032;-70
2021/12/23 04:54:49;;;;;;;96.10;52.83;;;;;;;-0.51;100.00;101360.41;10500147;28;20411;-69
2021/12/23 04:59:50;;;;;;;99.20;52.85;;;;;;;-0.60;100.00;101346.94;10499932;28;20052;-71
2021/12/23 05:04:50;;;;;;;79.18;42.25;;;;;;;-0.57;100.00;101334.25;10500239;28;20040;-71
2021/12/23 05:09:50;;;;;;;72.22;40.47;;;;;;;-0.40;100.00;101326.81;10501151;28;20124;-70
2021/12/23 05:14:51;;;;;;;86.53;49.28;;;;;;;-0.29;100.00;101319.72;10498640;28;20082;-70
2021/12/23 05:19:51;;;;;;;76.20;39.22;;;;;;;-0.16;100.00;101310.78;10498593;28;20028;-71
2021/12/23 05:24:52;;;;;;;97.00;49.70;;;;;;;-0.10;100.00;101307.66;10498854;28;20056;-71
2021/12/23 05:29:52;;;;;;;79.32;45.63;;;;;;;-0.09;100.00;101304.88;10498856;28;20054;-71
2021/12/23 05:34:53;;;;;;;77.05;42.25;;;;;;;0.05;100.00;101289.66;10514955;28;20057;-70
2021/12/23 05:39:53;;;;;;;78.70;46.92;;;;;;;0.03;100.00;101278.25;10514202;28;20033;-72
2021/12/23 05:44:53;;;;;;;80.47;39.40;;;;;;;0.08;100.00;101287.59;10499449;28;20119;-71
2021/12/23 05:49:54;;;;;;;67.82;42.63;;;;;;;0.11;100.00;101287.34;10497247;28;20037;-71
2021/12/23 05:54:56;;;;;;;70.07;41.38;;;;;;;0.09;100.00;101267.97;10498696;28;20043;-69
2021/12/23 05:59:56;;;;;;;68.43;41.33;;;;;;;0.19;100.00;101254.78;10497960;28;20044;-72
2021/12/23 06:04:56;;;;;;;76.38;40.60;;;;;;;0.27;100.00;101260.34;10498391;28;20495;-68
2021/12/23 06:09:57;;;;;;;76.05;40.05;;;;;;;0.32;100.00;101251.97;10434072;28;20500;-70
2021/12/23 06:14:57;;;;;;;63.08;36.38;;;;;;;0.39;100.00;101288.69;10512567;28;20033;-70
2021/12/23 06:19:58;;;;;;;66.50;38.88;;;;;;;0.44;100.00;101269.66;10496537;28;20036;-71
2021/12/23 06:24:58;;;;;;;70.63;42.95;;;;;;;0.47;100.00;101258.75;10514103;28;20037;-70
2021/12/23 06:29:59;;;;;;;79.60;43.35;;;;;;;0.53;100.00;101252.94;10496921;28;20035;-70
2021/12/23 06:34:59;;;;;;;46.72;30.52;;;;;;;0.47;100.00;101240.94;10497125;28;20060;-70
2021/12/23 06:40:00;;;;;;;79.93;42.17;;;;;;;0.55;100.00;101236.84;10495824;28;20048;-70
2021/12/23 06:45:00;;;;;;;71.07;39.05;;;;;;;0.60;100.00;101211.47;10513050;28;20066;-69
2021/12/23 06:50:01;;;;;;;68.72;37.78;;;;;;;0.60;100.00;101208.81;10503973;28;20518;-71
2021/12/23 06:55:01;;;;;;;64.32;37.05;;;;;;;0.77;100.00;101242.09;10503352;28;20195;-71
2021/12/23 07:00:05;;;;;;;66.70;40.72;;;;;;;0.72;100.00;101216.78;10486526;28;20039;-70
2021/12/23 07:05:06;;;;;;;63.75;37.10;;;;;;;0.69;100.00;101216.06;10505002;28;20063;-70
2021/12/23 07:10:08;;;;;;;71.40;39.13;;;;;;;0.75;100.00;101235.19;10504289;28;20033;-70
2021/12/23 07:15:09;;;;;;;67.68;36.00;;;;;;;0.78;100.00;101234.94;10505637;28;20032;-70
2021/12/23 07:20:09;;;;;;;59.15;38.10;;;;;;;0.81;100.00;101240.88;10519546;28;20123;-70
2021/12/23 07:25:12;;;;;;;57.83;35.88;;;;;;;0.88;100.00;101244.72;10503325;28;20434;-70
2021/12/23 07:30:14;;;;;;;57.95;31.63;;;;;;;0.89;100.00;101240.22;10503064;28;20418;-70
2021/12/23 07:35:15;;;;;;;67.97;36.63;;;;;;;0.85;100.00;101223.66;10485174;28;20090;-71
2021/12/23 07:40:17;;;;;;;62.33;35.72;;;;;;;0.87;100.00;101197.72;10503044;28;20073;-70
2021/12/23 07:45:17;;;;;;;66.03;35.53;;;;;;;0.95;100.00;101214.88;10503163;28;20040;-70
2021/12/23 07:50:18;;;;;;;62.03;37.38;;;;;;;0.99;100.00;101200.31;10502849;28;20464;-71
2021/12/23 07:55:20;;;;;;;54.65;33.63;;;;;;;1.07;100.00;101208.53;10502343;28;20048;-70
2021/12/23 08:00:20;;;;;;;56.40;33.55;;;;;;;1.02;100.00;101190.28;10501859;28;20040;-70
2021/12/23 08:05:21;;;;;;;69.82;36.63;;;;;;;1.03;100.00;101199.09;10502716;28;20409;-69
2021/12/23 08:10:21;;;;;;;61.67;34.80;;;;;;;1.04;100.00;101195.47;10484386;28;20020;-70
2021/12/23 08:15:21;;;;;;;56.53;33.78;;;;;;;1.13;100.00;101184.88;10500932;28;20116;-71
2021/12/23 08:20:22;;;;;;;69.30;34.85;;;;;;;1.17;100.00;101180.09;10501848;28;20063;-70
2021/12/23 08:25:23;;;;;;;64.95;34.63;;;;;;;1.19;100.00;101162.16;10501694;28;20127;-70
2021/12/23 08:30:23;;;;;;;55.97;33.90;;;;;;;1.26;100.00;101146.47;10503165;28;20024;-71
2021/12/23 08:35:24;;;;;;;63.38;36.85;;;;;;;1.31;100.00;101138.94;10517454;28;20060;-70
2021/12/23 08:40:25;;;;;;;62.03;37.65;;;;;;;1.37;100.00;101133.91;10501821;28;20052;-70
2021/12/23 08:45:29;;;;;;;53.13;31.38;;;;;;;1.41;100.00;101121.16;10502661;28;20036;-72
2021/12/23 08:50:30;;;;;;;67.22;35.47;;;;;;;1.46;100.00;101105.56;10482807;28;20037;-70
2021/12/23 08:55:31;;;;;;;62.80;34.38;;;;;;;1.41;100.00;101097.13;10500169;28;20090;-71
2021/12/23 09:00:33;;;;;;;61.33;32.97;;;;;;;1.45;100.00;101079.03;10501365;28;20126;-70
2021/12/23 09:05:37;;;;;;;59.35;34.20;;;;;;;1.46;100.00;101088.72;10501989;28;20064;-72
2021/12/23 09:10:37;;;;;;;60.17;33.80;;;;;;;1.44;100.00;101072.03;10499558;28;20513;-71
2021/12/23 09:15:38;;;;;;;47.05;28.65;;;;;;;1.43;100.00;101067.63;10501010;28;20085;-70
2021/12/23 09:20:38;;;;;;;44.58;26.90;;;;;;;1.50;100.00;101064.31;10507651;28;20073;-70
2021/12/23 09:25:39;;;;;;;37.35;19.42;;;;;;;1.53;100.00;101074.72;10530312;28;20039;-68
2021/12/23 09:35:59;;;;;;;51.95;34.80;;;;;;;1.70;100.00;101059.03;10511632;28;20060;-71
2021/12/23 09:41:14;;;;;;;55.13;29.63;;;;;;;1.73;100.00;101064.94;10507138;28;20127;-70
2021/12/23 09:46:16;;;;;;;39.67;24.48;;;;;;;1.78;100.00;101049.34;10498478;28;20040;-71
2021/12/23 09:51:18;;;;;;;48.08;29.02;;;;;;;1.93;100.00;101044.47;10498079;28;20036;-70
2021/12/23 09:56:19;;;;;;;46.60;26.42;;;;;;;1.98;100.00;101046.72;10497999;28;20388;-70
2021/12/23 10:01:19;;;;;;;59.65;31.42;;;;;;;2.14;100.00;101043.50;10500548;28;20036;-70
2021/12/23 10:06:20;;;;;;;52.75;35.10;;;;;;;2.23;100.00;101042.66;10498220;28;20067;-70
2021/12/23 10:12:40;;;;;;;52.03;29.92;;;;;;;2.25;100.00;101035.38;10498896;28;20029;-70
2021/12/23 10:38:10;;;;;;;52.30;29.58;;;;;;;2.47;100.00;101013.69;10504178;28;20040;-69
2021/12/23 10:43:29;;;;;;;46.20;29.83;;;;;;;2.63;100.00;101034.50;10505856;28;20040;-71
2021/12/23 10:48:32;;;;;;;48.75;30.23;;;;;;;2.80;100.00;101030.25;10505320;28;20376;-70
2021/12/23 10:59:19;;;;;;;45.65;26.10;;;;;;;2.92;100.00;101026.44;10503932;28;20036;-71
2021/12/23 11:04:20;;;;;;;50.35;29.80;;;;;;;3.04;100.00;101019.06;10507385;28;20044;-71
2021/12/23 11:09:37;;;;;;;64.18;33.10;;;;;;;3.07;100.00;100985.84;10504830;28;20060;-71
2021/12/23 11:46:42;;;;;;;49.92;26.90;;;;;;;3.74;100.00;100885.56;10502209;28;20037;-71
2021/12/23 11:51:53;;;;;;;56.67;25.98;;;;;;;3.79;100.00;100872.53;10502955;28;20060;-70
2021/12/23 11:57:10;;;;;;;43.50;25.88;;;;;;;3.80;100.00;100868.88;10503032;28;20101;-70
2021/12/23 12:02:21;;;;;;;45.65;25.92;;;;;;;3.71;100.00;100849.19;10502267;28;20028;-71
2021/12/23 12:07:22;;;;;;;47.80;24.67;;;;;;;3.70;100.00;100844.84;10501513;28;20033;-70
2021/12/23 12:12:22;;;;;;;44.10;24.25;;;;;;;3.70;100.00;100831.47;10500853;28;20024;-70
2021/12/23 12:17:25;;;;;;;39.72;24.95;;;;;;;3.79;100.00;100828.84;10501414;28;20111;-70
2021/12/23 12:22:45;;;;;;;45.58;28.42;;;;;;;4.01;100.00;100822.13;10500883;28;20036;-70
2021/12/23 12:27:45;;;;;;;46.88;29.30;;;;;;;4.23;100.00;100837.69;10501573;28;20032;-69
2021/12/23 12:32:45;;;;;;;40.30;26.85;;;;;;;4.33;100.00;100833.06;10501193;28;20367;-72
2021/12/23 12:37:46;;;;;;;43.17;24.73;;;;;;;4.32;100.00;100836.75;10501249;28;20182;-69
2021/12/23 12:42:48;;;;;;;39.67;21.83;;;;;;;4.23;100.00;100845.72;10517413;28;20082;-70
2021/12/23 12:47:54;;;;;;;43.25;26.25;;;;;;;4.29;100.00;100833.53;10501196;28;20369;-71
2021/12/23 12:53:00;;;;;;;34.28;24.95;;;;;;;4.33;100.00;100822.34;10515661;28;20475;-71
2021/12/23 12:58:03;;;;;;;45.67;28.02;;;;;;;4.51;100.00;100814.22;10500053;28;20555;-71
2021/12/23 13:03:03;;;;;;;48.65;28.52;;;;;;;4.78;100.00;100805.13;10514855;28;20465;-70
2021/12/23 13:08:15;;;;;;;35.50;22.73;;;;;;;4.58;100.00;100801.03;10498763;28;20115;-71
2021/12/23 13:13:32;;;;;;;45.63;26.77;;;;;;;4.39;100.00;100807.47;10498979;28;20031;-70
2021/12/23 13:18:32;;;;;;;49.53;27.20;;;;;;;4.36;100.00;100811.28;10481763;28;20024;-71
2021/12/23 13:23:45;;;;;;;41.42;26.92;;;;;;;4.30;100.00;100793.16;10514062;28;20028;-70
2021/12/23 13:28:52;;;;;;;46.75;26.83;;;;;;;4.09;100.00;100800.78;10500146;28;20206;-72
2021/12/23 13:33:55;;;;;;;40.25;26.35;;;;;;;4.12;100.00;100795.94;10497192;28;20032;-71
2021/12/23 13:38:58;;;;;;;42.67;27.92;;;;;;;4.04;100.00;100782.47;10496303;28;20496;-72
2021/12/23 13:44:01;;;;;;;43.75;29.15;;;;;;;4.08;100.00;100780.31;10497495;28;20125;-69
2021/12/23 13:49:04;;;;;;;56.10;28.77;;;;;;;4.04;100.00;100762.88;10497780;28;20539;-70
2021/12/23 13:54:12;;;;;;;44.97;27.23;;;;;;;3.96;100.00;100771.72;10496372;28;20040;-69
2021/12/23 13:59:21;;;;;;;46.95;27.30;;;;;;;4.07;100.00;100773.28;10498029;28;20040;-70
2021/12/23 14:04:30;;;;;;;37.15;23.58;;;;;;;4.02;100.00;100783.63;10497865;28;20033;-70
2021/12/23 14:09:36;;;;;;;49.08;26.95;;;;;;;4.03;100.00;100783.47;10498624;28;20043;-70
2021/12/23 14:14:48;;;;;;;44.65;25.55;;;;;;;4.07;100.00;100770.59;10497301;28;20025;-71
2021/12/23 14:23:11;;;;;;;45.42;28.15;;;;;;;4.10;100.00;100786.38;10482071;28;20033;-70
2021/12/23 14:25:20;;;;;;;48.90;28.00;;;;;;;4.08;100.00;100769.59;10495703;28;20107;-70
2021/12/23 14:30:32;;;;;;;38.90;27.17;;;;;;;4.08;100.00;100766.91;10496080;28;20430;-69
2021/12/23 14:35:32;;;;;;;56.35;31.75;;;;;;;4.15;100.00;100765.31;10495878;28;20098;-71
2021/12/23 14:40:33;;;;;;;51.50;30.77;;;;;;;4.12;100.00;100769.13;10496664;28;20422;-71
2021/12/23 14:45:33;;;;;;;50.15;30.15;;;;;;;4.13;100.00;100761.94;10496268;28;20133;-71
2021/12/23 14:50:48;;;;;;;47.50;32.10;;;;;;;4.08;100.00;100769.59;10496616;28;20464;-69
2021/12/23 14:55:53;;;;;;;59.58;33.10;;;;;;;4.12;100.00;100779.00;10496711;28;20444;-70
2021/12/23 15:00:53;;;;;;;52.85;31.80;;;;;;;4.09;100.00;100771.28;10496682;28;20155;-71
2021/12/23 15:05:54;;;;;;;49.63;33.40;;;;;;;4.14;100.00;100782.34;10495657;28;20074;-71
2021/12/23 15:10:56;;;;;;;49.40;31.33;;;;;;;4.13;100.00;100786.88;10503617;28;20093;-70
2021/12/23 15:16:07;;;;;;;45.58;27.92;;;;;;;4.18;100.00;100781.06;10502713;28;20139;-70
2021/12/23 15:21:16;;;;;;;60.42;36.13;;;;;;;4.25;100.00;100784.78;10503676;28;20123;-71
2021/12/23 15:26:28;;;;;;;62.15;33.05;;;;;;;4.33;100.00;100784.81;10502483;28;20414;-71
2021/12/23 15:31:28;;;;;;;48.40;32.78;;;;;;;4.32;100.00;100775.09;10503068;28;20029;-71
2021/12/23 15:36:28;;;;;;;56.03;32.58;;;;;;;4.33;100.00;100776.75;10502808;28;20049;-70
2021/12/23 15:41:29;;;;;;;61.45;36.63;;;;;;;4.37;100.00;100774.59;10501382;28;20055;-71
2021/12/23 15:46:29;;;;;;;75.63;38.67;;;;;;;4.36;100.00;100767.56;10503243;28;20086;-70
2021/12/23 15:51:29;;;;;;;59.42;35.33;;;;;;;4.39;100.00;100764.56;10501807;28;20031;-71
2021/12/23 15:56:30;;;;;;;75.40;40.00;;;;;;;4.38;100.00;100760.22;10502286;28;20452;-71
2021/12/23 16:01:30;;;;;;;70.38;38.00;;;;;;;4.42;100.00;100754.34;10501804;28;20151;-71
2021/12/23 16:11:53;;;;;;;66.60;37.13;;;;;;;4.55;100.00;100748.53;10500470;28;20468;-71
2021/12/23 16:16:53;;;;;;;76.82;39.17;;;;;;;4.46;100.00;100746.81;10502148;28;20037;-71
2021/12/23 16:21:54;;;;;;;53.00;35.92;;;;;;;4.45;100.00;100737.13;10498997;28;20033;-70
2021/12/23 16:26:54;;;;;;;67.13;37.22;;;;;;;4.47;100.00;100728.91;10500938;28;20037;-71
2021/12/23 16:31:54;;;;;;;53.63;34.88;;;;;;;4.47;100.00;100728.91;10516773;28;20043;-72
2021/12/23 16:36:55;;;;;;;62.35;36.40;;;;;;;4.38;100.00;100720.00;10500625;28;20098;-70
2021/12/23 16:41:55;;;;;;;54.90;35.90;;;;;;;4.41;100.00;100708.97;10500428;28;20025;-69
2021/12/23 16:46:56;;;;;;;72.43;39.70;;;;;;;4.38;100.00;100717.31;10500253;28;20432;-71
2021/12/23 16:51:56;;;;;;;62.67;39.80;;;;;;;4.45;100.00;100706.78;10501116;28;20024;-71
2021/12/23 17:02:15;;;;;;;57.10;34.80;;;;;;;4.41;100.00;100709.78;10511410;28;20116;-69
2021/12/23 17:07:16;;;;;;;55.38;32.40;;;;;;;4.46;100.00;100698.56;10512195;28;20040;-71
2021/12/23 17:12:16;;;;;;;57.75;33.80;;;;;;;4.54;100.00;100693.25;10526573;28;20032;-69
2021/12/23 17:17:17;;;;;;;74.80;37.67;;;;;;;4.45;100.00;100694.22;10499214;28;20035;-70
2021/12/23 17:22:17;;;;;;;58.80;36.03;;;;;;;4.38;100.00;100694.03;10514975;28;20032;-70
2021/12/23 17:27:18;;;;;;;67.97;39.42;;;;;;;4.39;100.00;100694.88;10499634;28;20107;-70
2021/12/23 17:32:18;;;;;;;71.10;38.80;;;;;;;4.38;100.00;100679.78;10497929;28;20078;-71
2021/12/23 17:37:19;;;;;;;64.97;38.20;;;;;;;4.53;100.00;100663.88;10499824;28;20041;-71
2021/12/23 17:42:19;;;;;;;77.07;40.88;;;;;;;4.51;100.00;100661.38;10498699;28;20033;-70
2021/12/23 17:47:21;;;;;;;67.10;37.00;;;;;;;4.49;100.00;100662.53;10498688;28;20040;-70
2021/12/23 17:52:22;;;;;;;64.78;40.22;;;;;;;4.49;100.00;100655.34;10497434;28;20067;-71
2021/12/23 17:57:22;;;;;;;69.75;38.40;;;;;;;4.42;100.00;100655.16;10500018;28;20432;-71
2021/12/23 18:02:23;;;;;;;67.65;40.38;;;;;;;4.43;100.00;100637.22;10497100;28;20037;-71
2021/12/23 18:07:23;;;;;;;64.53;37.40;;;;;;;4.38;100.00;100634.22;10513513;28;20059;-71
2021/12/23 18:12:24;;;;;;;56.08;36.00;;;;;;;4.30;100.00;100631.50;10498292;28;20067;-71
2021/12/23 18:17:25;;;;;;;62.45;36.45;;;;;;;4.33;100.00;100625.81;10497864;28;20365;-70
2021/12/23 18:22:25;;;;;;;70.13;39.13;;;;;;;4.41;100.00;100625.84;10498084;28;20033;-71
2021/12/23 18:27:26;;;;;;;67.28;39.17;;;;;;;4.46;100.00;100625.34;10498395;28;20032;-71
2021/12/23 18:32:26;;;;;;;71.82;36.55;;;;;;;4.52;100.00;100619.31;10497736;28;20139;-70
2021/12/23 18:37:28;;;;;;;85.03;41.72;;;;;;;4.57;100.00;100622.34;10498302;28;20110;-71
2021/12/23 18:42:35;;;;;;;71.85;38.05;;;;;;;4.62;100.00;100606.59;10502702;28;20033;-70
2021/12/23 18:47:35;;;;;;;;;;;;;;;4.66;100.00;100610.63;10506610;28;20041;-71
2021/12/23 18:52:35;;;;;;;68.07;39.15;;;;;;;4.62;100.00;100615.47;10503655;28;20360;-72
2021/12/23 18:57:36;;;;;;;64.60;36.70;;;;;;;4.69;100.00;100604.94;10504984;28;20278;-69
2021/12/23 19:02:59;;;;;;;76.30;39.97;;;;;;;4.71;100.00;100616.31;10505057;28;20036;-71
2021/12/23 19:07:59;;;;;;;68.65;37.95;;;;;;;4.73;100.00;100606.28;10517390;28;20068;-70
2021/12/23 19:12:59;;;;;;;67.13;38.38;;;;;;;4.78;100.00;100619.19;10504714;28;20354;-71
2021/12/23 19:18:03;;;;;;;70.00;39.75;;;;;;;4.81;100.00;100625.03;10520685;28;20044;-72
2021/12/23 19:23:03;;;;;;;73.15;40.47;;;;;;;4.89;100.00;100621.53;10505268;28;20032;-71
2021/12/23 19:28:04;;;;;;;66.57;37.83;;;;;;;4.95;100.00;100612.00;10503654;28;20476;-70
2021/12/23 19:33:04;;;;;;;55.83;29.13;;;;;;;5.01;100.00;100614.84;10503968;28;20024;-71
2021/12/23 19:38:05;;;;;;;58.05;33.15;;;;;;;5.12;100.00;100610.97;10504807;28;20057;-71
2021/12/23 19:43:05;;;;;;;45.95;32.55;;;;;;;5.23;100.00;100613.31;10502061;28;20131;-71
2021/12/23 19:48:06;;;;;;;51.22;34.05;;;;;;;5.31;100.00;100599.88;10446602;28;20068;-71
2021/12/23 19:53:06;;;;;;;52.42;30.80;;;;;;;5.39;100.00;100606.22;10502404;28;20029;-72
2021/12/23 19:58:07;;;;;;;62.45;34.40;;;;;;;5.47;100.00;100593.63;10503442;28;20120;-71
2021/12/23 20:03:10;;;;;;;51.58;34.58;;;;;;;5.50;100.00;100592.44;10502388;28;20044;-71
2021/12/23 20:08:13;;;;;;;56.47;34.80;;;;;;;5.63;100.00;100578.47;10484732;28;20036;-71
2021/12/23 20:13:13;;;;;;;50.67;28.30;;;;;;;5.68;100.00;100587.69;10501145;28;20097;-71
2021/12/23 20:18:14;;;;;;;65.30;39.30;;;;;;;5.79;100.00;100576.56;10501471;28;20090;-70
2021/12/23 20:23:14;;;;;;;56.67;39.08;;;;;;;5.91;100.00;100573.50;10502054;28;20485;-70
2021/12/23 20:28:15;;;;;;;58.85;39.30;;;;;;;6.02;100.00;100565.06;10501900;28;20048;-72
2021/12/23 20:33:15;;;;;;;60.45;37.88;;;;;;;6.12;100.00;100557.59;10502688;28;20153;-71
2021/12/23 20:38:16;;;;;;;64.60;42.97;;;;;;;6.23;100.00;100562.59;10501182;28;20048;-69
2021/12/23 20:43:16;;;;;;;79.22;45.30;;;;;;;6.34;100.00;100571.25;10502257;28;20115;-69
2021/12/23 20:48:16;;;;;;;65.18;42.65;;;;;;;6.44;100.00;100563.78;10502023;28;20032;-69
2021/12/23 20:53:24;;;;;;;76.50;41.08;;;;;;;6.53;100.00;100562.72;10501473;28;20452;-71
2021/12/23 20:58:26;;;;;;;60.45;37.53;;;;;;;6.68;100.00;100562.78;10500600;28;20037;-71
2021/12/23 21:03:27;;;;;;;70.10;38.22;;;;;;;6.76;100.00;100546.56;10499893;28;20048;-70
2021/12/23 21:08:27;;;;;;;62.45;37.50;;;;;;;6.89;100.00;100543.25;10500901;28;20477;-71
2021/12/23 21:13:28;;;;;;;55.88;34.58;;;;;;;6.98;100.00;100537.59;10482938;28;20074;-70
2021/12/23 21:18:29;;;;;;;55.47;35.97;;;;;;;7.08;100.00;100531.94;10498665;28;20520;-69
2021/12/23 21:23:29;;;;;;;43.60;32.40;;;;;;;7.18;100.00;100529.84;10500235;28;20036;-69
2021/12/23 21:28:29;;;;;;;54.55;33.78;;;;;;;7.27;100.00;100527.06;10500195;28;20063;-70
2021/12/23 21:33:30;;;;;;;70.38;34.67;;;;;;;7.37;100.00;100533.00;10499301;28;20063;-70
2021/12/23 21:38:31;;;;;;;54.53;34.13;;;;;;;7.39;100.00;100528.28;10500428;28;20143;-69
2021/12/23 21:43:31;;;;;;;75.43;39.25;;;;;;;7.42;100.00;100526.03;10498454;28;20028;-69
2021/12/23 21:48:32;;;;;;;55.53;33.95;;;;;;;7.54;100.00;100517.50;10498842;28;20123;-70
2021/12/23 21:53:32;;;;;;;59.10;37.40;;;;;;;7.57;100.00;100512.56;10498028;28;20048;-70
2021/12/23 21:58:32;;;;;;;68.28;40.13;;;;;;;7.62;100.00;100523.59;10498648;28;20044;-70
2021/12/23 22:03:33;;;;;;;76.30;40.15;;;;;;;7.69;100.00;100518.31;10498518;28;20039;-70
2021/12/23 22:08:33;;;;;;;72.88;38.30;;;;;;;7.76;100.00;100521.09;10497841;28;20039;-71
2021/12/23 22:13:34;;;;;;;66.35;38.22;;;;;;;7.81;100.00;100519.50;10498427;28;20082;-70
2021/12/23 22:18:34;;;;;;;70.68;38.17;;;;;;;7.86;100.00;100519.78;10497062;28;20043;-71
2021/12/23 22:23:35;;;;;;;52.10;34.92;;;;;;;7.95;100.00;100509.72;10499987;28;20376;-71
2021/12/23 22:28:35;;;;;;;74.65;35.90;;;;;;;8.01;100.00;100506.25;10513132;28;20127;-71
2021/12/23 22:33:36;;;;;;;66.82;34.60;;;;;;;8.07;100.00;100497.41;10514255;28;20036;-70
2021/12/23 22:38:36;;;;;;;58.28;33.60;;;;;;;8.14;100.00;100502.88;10498717;28;20419;-72
2021/12/23 22:43:37;;;;;;;58.03;30.00;;;;;;;8.16;100.00;100506.19;10497240;28;20037;-71
2021/12/23 22:48:37;;;;;;;55.08;31.65;;;;;;;8.24;100.00;100497.16;10496396;28;20127;-71
2021/12/23 22:53:38;;;;;;;41.38;26.52;;;;;;;8.27;100.00;100489.53;10498859;28;20037;-70
2021/12/23 22:58:38;;;;;;;42.55;25.05;;;;;;;8.31;100.00;100489.97;10496887;28;20373;-72
2021/12/23 23:03:39;;;;;;;41.40;24.20;;;;;;;8.35;100.00;100483.97;10498416;28;20123;-71
2021/12/23 23:08:39;;;;;;;27.08;20.15;;;;;;;8.40;100.00;100496.94;10495492;28;20063;-70
2021/12/23 23:14:46;;;;;;;26.58;18.75;;;;;;;8.46;100.00;100487.25;10497330;28;20094;-69
2021/12/23 23:19:11;;;;;;;28.70;20.30;;;;;;;8.56;100.00;100487.75;10494572;28;20064;-69
2021/12/23 23:44:57;;;;;;;31.30;21.38;;;;;;;8.58;100.00;100494.63;10504009;28;20032;-69
2021/12/23 23:49:57;;;;;;;37.88;21.52;;;;;;;8.62;100.00;100489.66;10504130;28;20451;-70
2021/12/23 23:55:00;;;;;;;22.23;17.08;;;;;;;8.67;100.00;100478.28;10503643;28;20036;-70
